logo
Search for airport 
image banner adimage banner adimage banner ad
image banner ad

VT55 - Brandon

Located in Randolph, United States

ICAO - VT55, IATA -

Data provided by Airmate  

General information

Coordinates: N43°54'4" W72°34'58"
Elevation is 710 feet MSL.
Magnetic variation is -16° East
View others Airports in Vermont

Operational data

Special qualification required
Current time UTC:
Current local time:
Weather at : KMPV - Edward F Knapp State ( 34 km )
METAR: KMPV 131451Z AUTO 24008KT 10SM BKN039 08/01 A2942 RMK AO2 SLP966 T00780006 51006
TAF: KMPV 131120Z 1312/1412 20009KT P6SM VCSH BKN025 FM131800 27011KT P6SM -SHRA OVC023 FM132300 29011G18KT P6SM -SHRA OVC017 FM140300 30014G22KT P6SM VCSH OVC025 FM140800 29010KT P6SM BKN080
View NOTAMs / SUP AIP / TFR affecting this airport [VIEW]
Communications frequencies: [VIEW]

Runways:

RWY identifierQFULength (ft)Width (ft)SurfaceLDA (ft)
17130025GRASS
35130025GRASS

Airport contact information

Address: Randolph United States

Satellite view of VT55